createdAt,value
2024-03-16T00:01:33.142Z,10.84
2024-03-16T00:04:00.060Z,10.83
2024-03-16T00:06:26.650Z,10.82
2024-03-16T00:08:53.215Z,10.82
2024-03-16T00:11:19.716Z,10.82
2024-03-16T00:13:46.293Z,10.81
2024-03-16T00:16:13.028Z,10.80
2024-03-16T00:18:39.648Z,10.77
2024-03-16T00:21:06.221Z,10.74
2024-03-16T00:23:32.769Z,10.69
2024-03-16T00:25:59.285Z,10.64
2024-03-16T00:28:25.843Z,10.60
2024-03-16T00:30:52.434Z,10.56
2024-03-16T00:33:19.096Z,10.51
2024-03-16T00:35:45.645Z,10.46
2024-03-16T00:38:12.884Z,10.41
2024-03-16T00:40:39.408Z,10.36
2024-03-16T00:43:06.438Z,10.31
2024-03-16T00:45:33.114Z,10.29
2024-03-16T00:48:01.255Z,10.25
2024-03-16T00:50:27.904Z,10.23
2024-03-16T00:52:54.460Z,10.20
2024-03-16T00:55:21.035Z,10.16
2024-03-16T00:57:47.537Z,10.14
2024-03-16T01:00:15.789Z,10.11
2024-03-16T01:02:42.714Z,10.13
2024-03-16T01:05:09.529Z,10.13
2024-03-16T01:07:36.056Z,10.14
2024-03-16T01:10:02.677Z,10.15
2024-03-16T01:12:29.345Z,10.18
2024-03-16T01:14:56.221Z,10.21
2024-03-16T01:17:22.714Z,10.24
2024-03-16T01:19:49.264Z,10.29
2024-03-16T01:22:15.860Z,10.33
2024-03-16T01:24:42.454Z,10.38
2024-03-16T01:27:09.025Z,10.42
2024-03-16T01:29:35.651Z,10.46
2024-03-16T01:32:05.417Z,10.50
2024-03-16T01:34:32.703Z,10.55
2024-03-16T01:36:59.322Z,10.59
2024-03-16T01:39:26.002Z,10.64
2024-03-16T01:41:52.781Z,10.69
2024-03-16T01:44:19.320Z,10.72
2024-03-16T01:46:49.078Z,10.76
2024-03-16T01:49:15.683Z,10.79
2024-03-16T01:51:42.638Z,10.83
2024-03-16T01:54:11.669Z,10.85
2024-03-16T01:56:38.586Z,10.88
2024-03-16T01:59:05.609Z,10.89
2024-03-16T02:01:32.738Z,10.92
2024-03-16T02:03:59.539Z,10.94
2024-03-16T02:06:28.288Z,10.94
2024-03-16T02:08:55.087Z,10.97
2024-03-16T02:11:22.671Z,11.00
2024-03-16T02:13:49.943Z,11.02
2024-03-16T02:16:16.905Z,11.04
2024-03-16T02:18:43.890Z,11.06
2024-03-16T02:21:10.956Z,11.08
2024-03-16T02:23:37.720Z,11.09
2024-03-16T02:26:05.873Z,11.11
2024-03-16T02:28:32.574Z,11.12
2024-03-16T02:30:59.801Z,11.12
2024-03-16T02:33:28.632Z,11.12
2024-03-16T02:35:56.515Z,11.12
2024-03-16T02:38:23.652Z,11.11
2024-03-16T02:40:50.264Z,11.11
2024-03-16T02:43:16.899Z,11.09
2024-03-16T02:45:43.502Z,11.02
2024-03-16T02:48:11.059Z,10.95
2024-03-16T02:50:37.756Z,10.88
2024-03-16T02:53:04.908Z,10.79
2024-03-16T02:55:31.536Z,10.73
2024-03-16T02:57:58.236Z,10.68
2024-03-16T03:00:25.527Z,10.63
2024-03-16T03:02:52.873Z,10.61
2024-03-16T03:05:22.276Z,10.57
2024-03-16T03:07:49.357Z,10.57
2024-03-16T03:10:15.952Z,10.55
2024-03-16T03:12:42.559Z,10.53
2024-03-16T03:15:10.639Z,10.52
2024-03-16T03:17:37.380Z,10.53
2024-03-16T03:20:06.610Z,10.52
2024-03-16T03:22:33.833Z,10.51
2024-03-16T03:25:00.635Z,10.50
2024-03-16T03:27:27.317Z,10.48
2024-03-16T03:29:53.874Z,10.49
2024-03-16T03:32:20.366Z,10.48
2024-03-16T03:34:47.839Z,10.46
2024-03-16T03:37:14.379Z,10.45
2024-03-16T03:39:41.029Z,10.43
2024-03-16T03:42:07.803Z,10.41
2024-03-16T03:44:39.566Z,10.41
2024-03-16T03:47:08.325Z,10.41
2024-03-16T03:49:36.840Z,10.41
2024-03-16T03:52:05.702Z,10.40
2024-03-16T03:54:33.162Z,10.39
2024-03-16T03:57:00.215Z,10.38
2024-03-16T03:59:26.769Z,10.35
2024-03-16T04:01:53.516Z,10.32
2024-03-16T04:04:20.118Z,10.31
2024-03-16T04:06:47.782Z,10.30
2024-03-16T04:09:14.978Z,10.31
2024-03-16T04:11:41.497Z,10.30
2024-03-16T04:14:08.887Z,10.29
2024-03-16T04:16:35.447Z,10.28
2024-03-16T04:19:02.038Z,10.28
2024-03-16T04:21:28.737Z,10.26
2024-03-16T04:23:55.297Z,10.25
2024-03-16T04:26:21.820Z,10.20
2024-03-16T04:28:48.365Z,10.14
2024-03-16T04:31:14.946Z,10.09
2024-03-16T04:33:41.512Z,10.01
2024-03-16T04:36:09.761Z,9.95
2024-03-16T04:38:36.543Z,9.88
2024-03-16T04:41:03.586Z,9.81
2024-03-16T04:43:30.076Z,9.77
2024-03-16T04:45:56.712Z,9.69
2024-03-16T04:48:23.243Z,9.63
2024-03-16T04:50:49.739Z,9.59
2024-03-16T04:53:16.661Z,9.55
2024-03-16T04:55:43.190Z,9.50
2024-03-16T04:58:09.859Z,9.49
2024-03-16T05:00:36.839Z,9.46
2024-03-16T05:03:05.394Z,9.44
2024-03-16T05:05:31.961Z,9.41
2024-03-16T05:07:58.467Z,9.38
2024-03-16T05:10:26.173Z,9.34
2024-03-16T05:12:53.008Z,9.32
2024-03-16T05:15:19.533Z,9.30
2024-03-16T05:17:46.051Z,9.27
2024-03-16T05:20:13.013Z,9.23
2024-03-16T05:22:39.513Z,9.21
2024-03-16T05:25:07.143Z,9.20
2024-03-16T05:27:34.304Z,9.20
2024-03-16T05:30:00.853Z,9.17
2024-03-16T05:32:27.399Z,9.17
2024-03-16T05:34:53.937Z,9.18
2024-03-16T05:37:20.434Z,9.18
2024-03-16T05:39:47.090Z,9.18
2024-03-16T05:42:14.279Z,9.21
2024-03-16T05:44:40.835Z,9.24
2024-03-16T05:47:08.148Z,9.26
2024-03-16T05:49:35.179Z,9.28
2024-03-16T05:52:01.944Z,9.32
2024-03-16T05:54:32.431Z,9.37
2024-03-16T05:56:59.131Z,9.44
2024-03-16T05:59:25.827Z,9.48
2024-03-16T06:01:53.172Z,9.53
2024-03-16T06:04:21.080Z,9.59
2024-03-16T06:06:48.097Z,9.66
2024-03-16T06:09:14.734Z,9.73
2024-03-16T06:11:41.790Z,9.82
2024-03-16T06:14:11.101Z,9.93
2024-03-16T06:16:39.006Z,10.02
2024-03-16T06:19:06.204Z,10.13
2024-03-16T06:21:32.936Z,10.29
2024-03-16T06:23:59.538Z,10.41
2024-03-16T06:26:29.174Z,10.49
2024-03-16T06:28:57.406Z,10.55
2024-03-16T06:31:33.389Z,10.63
2024-03-16T06:34:00.279Z,10.66
2024-03-16T06:36:27.036Z,10.68
2024-03-16T06:38:53.628Z,10.70
2024-03-16T06:41:20.240Z,10.72
2024-03-16T06:43:46.786Z,10.74
2024-03-16T06:46:13.524Z,10.75
2024-03-16T06:48:40.132Z,10.77
2024-03-16T06:51:07.782Z,10.80
2024-03-16T06:53:34.289Z,10.83
2024-03-16T06:56:00.839Z,10.84
2024-03-16T06:58:27.584Z,10.86
2024-03-16T07:00:54.154Z,10.89
2024-03-16T07:03:21.306Z,10.93
2024-03-16T07:05:47.826Z,10.96
2024-03-16T07:08:18.063Z,10.98
2024-03-16T07:10:46.328Z,11.03
2024-03-16T07:13:13.539Z,11.09
2024-03-16T07:15:40.552Z,11.13
2024-03-16T07:18:07.232Z,11.17
2024-03-16T07:20:33.953Z,11.21
2024-03-16T07:23:00.452Z,11.26
2024-03-16T07:25:27.049Z,11.28
2024-03-16T07:27:53.994Z,11.33
2024-03-16T07:30:20.955Z,11.38
2024-03-16T07:32:48.729Z,11.42
2024-03-16T07:35:15.302Z,11.44
2024-03-16T07:37:41.813Z,11.46
2024-03-16T07:40:14.518Z,11.50
2024-03-16T07:42:42.824Z,11.54
2024-03-16T07:45:09.697Z,11.57
2024-03-16T07:47:36.346Z,11.59
2024-03-16T07:50:04.405Z,11.61
2024-03-16T07:52:30.925Z,11.63
2024-03-16T07:54:57.545Z,11.66
2024-03-16T07:57:25.398Z,11.70
2024-03-16T07:59:51.973Z,11.73
2024-03-16T08:02:20.868Z,11.76
2024-03-16T08:04:48.147Z,11.82
2024-03-16T08:07:14.962Z,11.88
2024-03-16T08:09:41.565Z,11.93
2024-03-16T08:12:08.777Z,11.98
2024-03-16T08:14:37.984Z,12.04
2024-03-16T08:17:04.933Z,12.11
2024-03-16T08:19:32.548Z,12.09
2024-03-16T08:21:59.064Z,12.06
2024-03-16T08:24:25.589Z,12.04
2024-03-16T08:26:53.043Z,11.98
2024-03-16T08:29:19.680Z,11.95
2024-03-16T08:31:46.194Z,11.95
2024-03-16T08:34:13.567Z,11.98
2024-03-16T08:36:41.832Z,12.01
2024-03-16T08:39:09.097Z,12.06
2024-03-16T08:41:37.540Z,12.16
2024-03-16T08:44:05.553Z,12.27
2024-03-16T08:46:32.849Z,12.40
2024-03-16T08:48:59.977Z,12.52
2024-03-16T08:51:26.778Z,12.72
2024-03-16T08:53:54.643Z,12.98
2024-03-16T08:56:21.382Z,13.26
2024-03-16T08:58:48.017Z,13.44
2024-03-16T09:01:14.713Z,13.56
2024-03-16T09:03:41.399Z,13.76
2024-03-16T09:06:08.775Z,14.06
2024-03-16T09:08:35.501Z,14.44
2024-03-16T09:11:02.078Z,15.13
2024-03-16T09:13:30.790Z,16.08
2024-03-16T09:15:57.795Z,17.48
2024-03-16T09:18:25.300Z,18.89
2024-03-16T09:20:51.920Z,20.27
2024-03-16T09:23:18.484Z,21.65
2024-03-16T09:25:47.844Z,22.41
2024-03-16T09:28:15.160Z,22.56
2024-03-16T09:30:46.282Z,22.49
2024-03-16T09:33:13.156Z,22.15
2024-03-16T09:35:43.257Z,21.79
2024-03-16T09:38:11.146Z,21.50
2024-03-16T09:40:44.034Z,21.42
